Time;durP1;ratioP1;P1;durP2;ratioP2;P2;SDS_P1;SDS_P2;PMS_P1;PMS_P2;Temp;Humidity;BMP_temperature;BMP_pressure;BME280_temperature;BME280_humidity;BME280_pressure;Samples;Min_cycle;Max_cycle;Signal;HPM_P1;HPM_P2
2021/06/01 00:01:57;;;;;;;8.32;4.57;;;18.40;99.90;;;;;;5057201;28;20218;-84
2021/06/01 00:04:23;;;;;;;7.15;5.13;;;18.40;99.90;;;;;;5075044;28;20155;-82
2021/06/01 00:06:48;;;;;;;4.57;4.18;;;18.40;99.90;;;;;;5075090;28;20228;-82
2021/06/01 00:09:20;;;;;;;4.97;4.47;;;18.30;99.90;;;;;;5056985;28;20192;-81
2021/06/01 00:11:47;;;;;;;6.95;5.63;;;18.40;99.90;;;;;;5074503;28;20591;-85
2021/06/01 00:14:14;;;;;;;6.25;5.75;;;18.50;99.90;;;;;;5074511;28;20171;-89
2021/06/01 00:16:39;;;;;;;6.18;5.57;;;18.50;99.90;;;;;;5074395;28;20166;-81
2021/06/01 00:19:07;;;;;;;5.57;4.35;;;18.40;99.90;;;;;;5074942;28;20654;-82
2021/06/01 00:21:34;;;;;;;5.60;5.10;;;18.20;99.90;;;;;;5074811;28;20281;-80
2021/06/01 00:24:00;;;;;;;7.47;4.95;;;18.10;99.90;;;;;;5074381;28;20167;-81
2021/06/01 00:26:26;;;;;;;5.22;4.55;;;18.20;99.90;;;;;;5074392;28;20223;-82
2021/06/01 00:28:52;;;;;;;7.50;5.00;;;18.20;99.90;;;;;;5074340;28;20186;-88
2021/06/01 00:31:18;;;;;;;5.47;4.97;;;18.20;99.90;;;;;;5056424;28;20185;-82
2021/06/01 00:33:44;;;;;;;11.10;5.50;;;18.30;99.90;;;;;;5056171;28;20166;-89
2021/06/01 00:36:09;;;;;;;5.32;4.75;;;18.20;99.90;;;;;;5074424;28;20248;-80
2021/06/01 00:38:36;;;;;;;6.03;5.43;;;18.00;99.90;;;;;;5056688;28;20630;-82
2021/06/01 00:41:03;;;;;;;5.65;4.75;;;17.80;99.90;;;;;;5073898;28;20228;-80
2021/06/01 00:43:28;;;;;;;9.73;5.28;;;18.00;99.90;;;;;;5073789;28;20250;-80
2021/06/01 00:45:54;;;;;;;6.20;5.57;;;18.00;99.90;;;;;;5073705;28;20257;-83
2021/06/01 00:48:22;;;;;;;6.18;4.82;;;18.10;99.90;;;;;;5055929;28;20162;-80
2021/06/01 00:50:48;;;;;;;4.63;4.22;;;18.10;99.90;;;;;;5073704;28;20177;-80
2021/06/01 00:53:14;;;;;;;6.22;4.70;;;18.10;99.90;;;;;;5073604;28;20245;-81
2021/06/01 00:55:40;;;;;;;7.60;5.20;;;18.00;99.90;;;;;;5055100;28;20525;-80
2021/06/01 00:58:06;;;;;;;5.38;4.88;;;18.00;99.90;;;;;;5055455;28;20273;-80
2021/06/01 01:03:16;;;;;;;8.93;5.70;;;18.00;99.90;;;;;;5073022;28;20189;-81
2021/06/01 01:05:45;;;;;;;5.55;5.05;;;18.20;99.90;;;;;;5073493;28;20163;-81
2021/06/01 01:09:08;;;;;;;11.40;4.90;;;18.10;99.90;;;;;;5073775;28;20689;-86
2021/06/01 01:11:15;;;;;;;6.35;5.38;;;18.00;99.90;;;;;;5059602;28;20178;-86
2021/06/01 01:14:07;;;;;;;5.45;4.95;;;17.80;99.90;;;;;;5073966;28;20171;-86
2021/06/01 01:16:34;;;;;;;6.10;5.53;;;17.70;99.90;;;;;;5055670;28;20166;-90
2021/06/01 01:19:11;;;;;;;7.95;5.38;;;17.60;99.90;;;;;;5073265;28;20186;-81
2021/06/01 01:21:40;;;;;;;7.68;5.63;;;17.70;99.90;;;;;;5073308;28;20208;-82
2021/06/01 01:24:37;;;;;;;8.15;5.93;;;17.70;99.90;;;;;;5073872;28;20166;-84
2021/06/01 01:27:12;;;;;;;7.75;5.72;;;17.80;99.90;;;;;;5073475;28;20293;-81
2021/06/01 01:29:43;;;;;;;5.97;5.15;;;17.70;99.90;;;;;;5055600;28;20197;-83
2021/06/01 01:32:27;;;;;;;7.40;6.20;;;17.60;99.90;;;;;;5073105;28;20170;-82
2021/06/01 01:34:55;;;;;;;6.03;5.53;;;17.50;99.90;;;;;;5072948;28;20214;-81
2021/06/01 01:37:22;;;;;;;7.93;5.60;;;17.60;99.90;;;;;;5055104;28;20186;-82
2021/06/01 01:39:52;;;;;;;7.07;5.35;;;17.60;99.90;;;;;;5073339;28;20519;-80
2021/06/01 01:42:19;;;;;;;7.93;5.25;;;17.80;99.90;;;;;;5072836;28;20198;-81
2021/06/01 01:44:52;;;;;;;8.95;4.88;;;17.90;99.90;;;;;;5054989;28;20559;-81
2021/06/01 01:50:07;;;;;;;8.45;5.10;;;17.70;99.90;;;;;;5073685;28;20214;-82
2021/06/01 01:52:36;;;;;;;11.23;5.30;;;17.70;99.90;;;;;;5073587;28;20208;-81
2021/06/01 01:55:04;;;;;;;7.75;5.30;;;17.70;99.90;;;;;;5073922;28;20224;-87
2021/06/01 01:57:30;;;;;;;6.18;5.53;;;17.50;99.90;;;;;;5073667;28;20654;-80
2021/06/01 01:59:57;;;;;;;7.63;5.10;;;17.40;99.90;;;;;;5073605;28;20182;-83
2021/06/01 02:02:23;;;;;;;18.63;5.82;;;17.30;99.90;;;;;;5055162;28;20214;-80
2021/06/01 02:04:50;;;;;;;7.78;5.25;;;17.20;99.90;;;;;;5073313;28;20158;-90
2021/06/01 02:07:15;;;;;;;8.85;5.53;;;17.20;99.90;;;;;;5074020;28;20185;-83
2021/06/01 02:09:41;;;;;;;7.72;5.45;;;17.40;99.90;;;;;;5073471;28;20678;-84
2021/06/01 02:12:07;;;;;;;6.53;5.45;;;17.40;99.90;;;;;;5073717;28;20166;-82
2021/06/01 02:14:33;;;;;;;10.02;5.78;;;17.30;99.90;;;;;;5078732;28;20192;-81
2021/06/01 02:16:59;;;;;;;6.55;5.13;;;17.30;99.90;;;;;;5062067;28;20166;-79
2021/06/01 02:19:26;;;;;;;6.63;5.10;;;17.30;99.90;;;;;;5061910;28;20190;-80
2021/06/01 02:25:13;;;;;;;8.88;5.22;;;17.10;99.90;;;;;;5079921;28;20181;-83
2021/06/01 02:27:42;;;;;;;8.15;5.43;;;17.20;99.90;;;;;;5062095;28;20626;-88
2021/06/01 02:30:12;;;;;;;8.07;5.75;;;17.20;99.90;;;;;;5079946;28;20573;-82
2021/06/01 02:32:45;;;;;;;8.38;5.50;;;17.20;99.90;;;;;;5062731;28;20170;-83
2021/06/01 02:35:18;;;;;;;6.30;5.80;;;17.10;99.90;;;;;;5080666;28;20193;-83
2021/06/01 02:37:46;;;;;;;5.82;5.32;;;17.20;99.90;;;;;;5062247;28;20166;-82
2021/06/01 02:40:15;;;;;;;7.65;5.50;;;17.20;99.90;;;;;;5079645;28;20261;-81
2021/06/01 02:42:42;;;;;;;8.32;6.15;;;17.10;99.90;;;;;;5079886;28;20205;-88
2021/06/01 02:45:11;;;;;;;7.65;6.18;;;17.00;99.90;;;;;;5079553;28;21014;-88
2021/06/01 02:47:37;;;;;;;6.80;5.53;;;17.10;99.90;;;;;;5061139;28;20180;-84
2021/06/01 02:50:07;;;;;;;7.50;5.97;;;17.20;99.90;;;;;;5079667;28;20178;-82
2021/06/01 02:52:34;;;;;;;11.15;5.25;;;17.00;99.90;;;;;;5079584;28;20202;-81
2021/06/01 02:55:06;;;;;;;8.57;6.43;;;16.90;99.90;;;;;;5079624;28;20228;-80
2021/06/01 02:57:32;;;;;;;7.47;5.68;;;16.90;99.90;;;;;;5079400;28;20216;-80
2021/06/01 02:59:58;;;;;;;6.30;5.60;;;16.90;99.90;;;;;;5079723;28;20189;-86
2021/06/01 03:02:30;;;;;;;6.68;5.97;;;16.80;99.90;;;;;;5079338;28;20279;-81
2021/06/01 03:04:55;;;;;;;9.52;6.03;;;16.80;99.90;;;;;;5061506;28;20219;-83
2021/06/01 03:07:22;;;;;;;10.32;5.88;;;16.70;99.90;;;;;;5079803;28;20163;-82
2021/06/01 03:09:48;;;;;;;6.78;5.60;;;16.60;99.90;;;;;;5079109;28;20527;-90
2021/06/01 03:12:35;;;;;;;13.02;6.78;;;16.60;99.90;;;;;;5079337;28;20158;-81
2021/06/01 03:15:01;;;;;;;7.18;6.57;;;16.60;99.90;;;;;;5079017;28;20212;-81
2021/06/01 03:17:28;;;;;;;12.75;6.85;;;16.60;99.90;;;;;;5079570;28;20162;-82
2021/06/01 03:19:53;;;;;;;10.95;6.30;;;16.50;99.90;;;;;;5079367;28;20682;-84
2021/06/01 03:22:19;;;;;;;7.20;6.40;;;16.50;99.90;;;;;;5078880;28;20202;-82
2021/06/01 03:24:45;;;;;;;9.98;6.70;;;16.60;99.90;;;;;;5077255;28;20154;-82
2021/06/01 03:27:10;;;;;;;13.75;6.93;;;16.60;99.90;;;;;;5058135;28;20170;-82
2021/06/01 03:29:37;;;;;;;8.43;7.22;;;16.60;99.90;;;;;;5075791;28;20178;-83
2021/06/01 03:32:06;;;;;;;7.35;6.47;;;16.50;99.90;;;;;;5075601;28;20178;-83
2021/06/01 03:34:32;;;;;;;23.98;6.72;;;16.40;99.90;;;;;;5057729;28;20162;-83
2021/06/01 03:36:58;;;;;;;11.68;5.55;;;16.30;99.90;;;;;;5075995;28;20177;-83
2021/06/01 03:39:24;;;;;;;9.95;6.55;;;16.30;99.90;;;;;;5075798;28;20193;-84
2021/06/01 03:41:50;;;;;;;7.00;6.32;;;16.40;99.90;;;;;;5057792;28;20293;-87
2021/06/01 03:44:16;;;;;;;11.25;6.18;;;16.40;99.90;;;;;;5075291;28;20254;-84
2021/06/01 03:46:42;;;;;;;11.18;6.55;;;16.40;99.90;;;;;;5075928;28;20191;-87
2021/06/01 03:49:08;;;;;;;11.07;6.95;;;16.30;99.90;;;;;;5057657;28;20209;-86
2021/06/01 03:51:34;;;;;;;9.80;7.00;;;16.30;99.90;;;;;;5075596;28;20634;-79
2021/06/01 03:53:59;;;;;;;7.65;6.50;;;16.40;99.90;;;;;;5075139;28;20199;-85
2021/06/01 03:56:26;;;;;;;10.23;6.80;;;16.50;99.90;;;;;;5075418;28;20163;-80
2021/06/01 03:58:51;;;;;;;7.10;6.40;;;16.50;99.90;;;;;;5057059;28;20189;-83
2021/06/01 04:01:17;;;;;;;9.30;6.90;;;16.50;99.90;;;;;;5057018;28;20206;-81
2021/06/01 04:03:43;;;;;;;16.02;6.65;;;16.40;99.90;;;;;;5056881;28;20163;-82
2021/06/01 04:06:12;;;;;;;9.68;6.40;;;16.70;99.90;;;;;;5074806;28;20175;-82
2021/06/01 04:08:41;;;;;;;14.68;6.75;;;17.10;99.90;;;;;;5075772;28;20171;-80
2021/06/01 04:11:07;;;;;;;19.88;6.82;;;17.60;99.90;;;;;;5075331;28;20235;-81
2021/06/01 04:13:33;;;;;;;6.80;6.10;;;17.90;99.90;;;;;;5077617;28;20162;-82
2021/06/01 04:15:59;;;;;;;12.38;7.00;;;18.10;99.90;;;;;;5063187;28;20232;-81
2021/06/01 04:18:27;;;;;;;10.70;6.10;;;18.10;99.90;;;;;;5079686;28;20178;-81
2021/06/01 04:20:53;;;;;;;14.57;6.72;;;18.00;99.90;;;;;;5078600;28;20198;-81
2021/06/01 04:23:19;;;;;;;8.50;7.00;;;17.90;99.90;;;;;;5077792;28;20178;-82
2021/06/01 04:25:44;;;;;;;10.57;7.00;;;17.90;99.90;;;;;;5060139;28;20170;-81
2021/06/01 04:28:10;;;;;;;11.75;7.07;;;17.80;99.90;;;;;;5077067;28;20177;-82
2021/06/01 04:30:36;;;;;;;9.23;6.20;;;17.90;99.90;;;;;;5077952;28;20182;-83
2021/06/01 04:33:02;;;;;;;19.20;7.85;;;17.60;99.90;;;;;;5084503;28;20173;-81
2021/06/01 04:35:27;;;;;;;19.50;7.90;;;17.60;99.90;;;;;;5075282;28;20212;-81
2021/06/01 04:37:53;;;;;;;11.70;7.07;;;17.60;99.90;;;;;;5074041;28;20166;-84
2021/06/01 04:40:20;;;;;;;11.63;6.53;;;17.60;99.90;;;;;;5057092;28;20222;-81
2021/06/01 04:42:46;;;;;;;10.00;6.90;;;17.70;99.90;;;;;;5075762;28;20221;-85
2021/06/01 04:45:13;;;;;;;10.23;7.07;;;17.70;99.90;;;;;;5075233;28;20554;-85
2021/06/01 04:47:39;;;;;;;13.52;6.15;;;17.50;99.90;;;;;;5056813;28;20190;-85
2021/06/01 04:50:06;;;;;;;9.13;5.93;;;17.40;99.90;;;;;;5074356;28;20187;-83
2021/06/01 04:52:31;;;;;;;13.77;6.53;;;17.40;99.90;;;;;;5057218;28;20627;-84
2021/06/01 04:54:57;;;;;;;10.85;6.95;;;17.40;99.90;;;;;;5056427;28;20216;-84
2021/06/01 04:57:23;;;;;;;12.05;6.20;;;17.40;99.90;;;;;;5073982;28;20163;-81
2021/06/01 04:59:48;;;;;;;12.73;6.60;;;17.60;99.90;;;;;;5056473;28;20191;-81
2021/06/01 05:02:14;;;;;;;14.48;5.72;;;17.70;99.90;;;;;;5074845;28;20495;-84
2021/06/01 05:04:39;;;;;;;12.38;6.30;;;17.70;99.90;;;;;;5074268;28;20239;-81
2021/06/01 05:07:05;;;;;;;11.90;6.45;;;17.70;99.90;;;;;;5056186;28;20672;-81
2021/06/01 05:09:31;;;;;;;10.23;5.82;;;17.70;99.90;;;;;;5074301;28;20194;-81
2021/06/01 05:11:56;;;;;;;13.68;5.65;;;17.90;99.90;;;;;;5074202;28;20194;-83
2021/06/01 05:14:22;;;;;;;11.55;5.55;;;18.00;99.90;;;;;;5057024;28;20211;-85
2021/06/01 05:16:48;;;;;;;14.80;6.32;;;18.10;99.90;;;;;;5085102;28;20185;-80
2021/06/01 05:19:14;;;;;;;10.15;5.80;;;18.00;99.90;;;;;;5092547;28;20174;-81
2021/06/01 05:21:40;;;;;;;10.57;5.70;;;18.00;99.90;;;;;;5093918;28;20206;-79
2021/06/01 05:24:06;;;;;;;11.93;5.20;;;18.10;99.90;;;;;;5092145;28;20159;-81
2021/06/01 05:26:31;;;;;;;15.52;5.35;;;18.20;99.90;;;;;;5074159;28;20166;-79
2021/06/01 05:28:57;;;;;;;17.92;5.43;;;18.20;99.90;;;;;;5092842;28;20174;-78
2021/06/01 05:31:32;;;;;;;15.82;5.47;;;18.00;99.90;;;;;;5088822;28;20178;-81
2021/06/01 05:34:04;;;;;;;13.55;5.07;;;18.10;99.90;;;;;;5074461;28;20240;-81
2021/06/01 05:36:30;;;;;;;8.52;4.97;;;18.30;99.90;;;;;;5076247;28;20178;-80
2021/06/01 05:38:56;;;;;;;8.73;4.70;;;18.30;99.90;;;;;;5077613;28;20190;-81
2021/06/01 05:41:22;;;;;;;20.75;5.28;;;18.40;99.90;;;;;;5074156;28;20202;-88
2021/06/01 05:43:47;;;;;;;14.65;5.47;;;18.50;99.90;;;;;;5074547;28;20166;-84
2021/06/01 05:46:13;;;;;;;16.73;5.43;;;18.50;99.90;;;;;;5055706;28;20196;-80
2021/06/01 05:48:39;;;;;;;16.70;5.13;;;18.60;99.90;;;;;;5055281;28;20224;-81
2021/06/01 05:51:05;;;;;;;6.78;3.72;;;18.60;99.90;;;;;;5055231;28;20167;-81
2021/06/01 05:53:32;;;;;;;8.20;4.32;;;18.60;99.90;;;;;;5072390;28;20159;-80
2021/06/01 05:55:58;;;;;;;5.25;4.43;;;18.70;99.90;;;;;;5072845;28;20174;-82
2021/06/01 05:58:24;;;;;;;21.38;4.68;;;18.70;99.90;;;;;;5057586;28;20621;-90
2021/06/01 06:00:51;;;;;;;10.30;3.90;;;18.80;99.90;;;;;;5059477;28;20174;-84
2021/06/01 06:03:17;;;;;;;8.32;4.28;;;19.00;99.90;;;;;;5073622;28;20163;-80
2021/06/01 06:05:47;;;;;;;17.48;4.40;;;19.10;99.90;;;;;;5072939;28;20170;-80
2021/06/01 06:08:15;;;;;;;9.75;3.83;;;19.20;99.90;;;;;;5072473;28;20242;-81
2021/06/01 06:10:42;;;;;;;9.93;3.90;;;19.20;99.90;;;;;;5071951;28;20194;-80
2021/06/01 06:13:09;;;;;;;9.63;4.13;;;19.20;99.90;;;;;;5072650;28;20188;-81
2021/06/01 06:15:35;;;;;;;5.80;3.20;;;19.30;99.90;;;;;;5071730;28;20167;-80
2021/06/01 06:18:28;;;;;;;12.18;3.35;;;19.40;99.90;;;;;;5053936;28;20570;-80
2021/06/01 06:21:02;;;;;;;10.43;3.28;;;19.30;99.90;;;;;;5071933;28;20202;-80
2021/06/01 06:23:29;;;;;;;7.68;3.03;;;19.40;99.90;;;;;;5071626;28;20170;-80
2021/06/01 06:25:56;;;;;;;8.20;2.90;;;19.60;99.90;;;;;;5072342;28;20159;-79
2021/06/01 06:28:22;;;;;;;5.32;3.15;;;19.60;99.90;;;;;;5072101;28;20175;-79
2021/06/01 06:30:47;;;;;;;7.63;2.67;;;19.80;99.90;;;;;;5071891;28;20224;-81
2021/06/01 06:33:13;;;;;;;6.80;2.78;;;20.00;99.90;;;;;;5072001;28;20645;-80
2021/06/01 06:35:38;;;;;;;3.28;2.97;;;20.20;99.90;;;;;;5071797;28;20167;-80
2021/06/01 06:38:04;;;;;;;18.48;3.05;;;20.20;99.90;;;;;;5072065;28;20177;-82
2021/06/01 06:40:30;;;;;;;5.82;2.30;;;20.30;99.90;;;;;;5071783;28;20217;-81
2021/06/01 06:42:57;;;;;;;3.78;2.08;;;20.50;99.90;;;;;;5053985;28;20210;-79
2021/06/01 06:45:23;;;;;;;4.18;2.22;;;20.60;99.50;;;;;;5053736;28;20266;-81
2021/06/01 06:50:20;;;;;;;6.03;1.90;;;20.80;98.40;;;;;;5071307;28;20216;-80
2021/06/01 06:52:46;;;;;;;4.13;1.92;;;20.80;97.70;;;;;;5071647;28;20178;-79
2021/06/01 06:55:14;;;;;;;2.05;1.95;;;21.10;97.30;;;;;;5071406;28;20166;-80
2021/06/01 06:57:41;;;;;;;18.55;2.10;;;21.60;96.30;;;;;;5071703;28;20167;-79
2021/06/01 07:00:18;;;;;;;5.75;2.22;;;22.40;95.10;;;;;;5072263;28;20604;-78
2021/06/01 07:02:44;;;;;;;3.67;1.98;;;23.20;94.30;;;;;;5075047;28;20225;-81
2021/06/01 07:05:12;;;;;;;5.15;2.10;;;24.10;92.70;;;;;;5076278;28;20162;-78
2021/06/01 07:07:39;;;;;;;2.80;2.05;;;25.30;92.10;;;;;;5075596;28;20175;-81
2021/06/01 07:10:06;;;;;;;4.90;1.77;;;25.80;91.20;;;;;;5075378;28;20182;-81
2021/06/01 07:12:31;;;;;;;2.05;1.90;;;26.00;89.50;;;;;;5058268;28;20619;-81
2021/06/01 07:15:14;;;;;;;11.23;2.80;;;26.10;88.30;;;;;;5075691;28;20177;-83
2021/06/01 07:17:43;;;;;;;1.60;1.50;;;26.30;87.20;;;;;;5075466;28;20166;-84
2021/06/01 07:20:11;;;;;;;5.47;1.50;;;26.50;85.60;;;;;;5058156;28;20564;-84
2021/06/01 07:22:37;;;;;;;1.60;1.50;;;27.10;83.70;;;;;;5058764;28;20234;-86
2021/06/01 07:25:03;;;;;;;3.25;1.65;;;27.30;82.20;;;;;;5057668;28;20260;-82
2021/06/01 07:27:28;;;;;;;1.65;1.55;;;26.30;83.10;;;;;;5075955;28;20202;-81
2021/06/01 07:29:54;;;;;;;4.72;1.70;;;26.20;83.20;;;;;;5076427;28;20244;-81
2021/06/01 07:32:21;;;;;;;5.80;1.33;;;26.20;83.00;;;;;;5077333;28;20249;-82
2021/06/01 07:34:47;;;;;;;1.60;1.45;;;26.40;82.40;;;;;;5058149;28;20190;-82
2021/06/01 07:37:14;;;;;;;3.10;1.70;;;27.30;81.80;;;;;;5057717;28;20234;-87
2021/06/01 07:39:40;;;;;;;1.65;1.55;;;28.10;79.20;;;;;;5059739;28;20553;-85
2021/06/01 07:42:06;;;;;;;1.95;1.80;;;27.10;79.80;;;;;;5059143;28;20206;-85
2021/06/01 07:44:33;;;;;;;4.45;1.85;;;26.90;78.90;;;;;;5058398;28;20181;-86
2021/06/01 07:47:00;;;;;;;2.00;1.48;;;26.70;79.20;;;;;;5058945;28;20162;-89
2021/06/01 07:49:26;;;;;;;2.17;1.70;;;25.90;79.10;;;;;;5042320;28;20678;-86
2021/06/01 07:51:52;;;;;;;1.95;1.52;;;25.60;80.50;;;;;;5056891;28;20217;-82
2021/06/01 07:54:18;;;;;;;3.28;1.52;;;25.10;80.50;;;;;;5057309;28;20169;-82
2021/06/01 07:56:43;;;;;;;3.13;1.80;;;24.90;81.20;;;;;;5076333;28;20553;-82
2021/06/01 07:59:09;;;;;;;4.40;1.60;;;24.80;82.10;;;;;;5072562;28;20209;-82
2021/06/01 08:01:35;;;;;;;3.30;1.80;;;24.30;81.70;;;;;;5058426;28;20676;-82
2021/06/01 08:04:01;;;;;;;14.10;1.40;;;23.60;83.80;;;;;;5059329;28;20162;-89
2021/06/01 08:06:30;;;;;;;1.77;1.65;;;23.40;83.70;;;;;;5051727;28;20265;-85
2021/06/01 08:08:56;;;;;;;3.92;1.92;;;23.40;83.50;;;;;;5038879;28;20187;-85
2021/06/01 08:11:25;;;;;;;6.30;1.75;;;23.40;84.20;;;;;;5031924;28;20194;-83
2021/06/01 08:13:50;;;;;;;2.60;1.90;;;23.30;84.40;;;;;;5050779;28;20182;-83
2021/06/01 08:16:16;;;;;;;1.75;1.42;;;23.30;83.10;;;;;;5069123;28;20174;-84
2021/06/01 08:18:49;;;;;;;1.50;1.40;;;23.10;83.20;;;;;;5038758;28;20766;-86
2021/06/01 08:21:25;;;;;;;1.95;1.67;;;22.90;83.90;;;;;;5039243;28;20685;-86
2021/06/01 08:23:51;;;;;;;4.30;1.67;;;23.00;85.20;;;;;;5054203;28;20185;-84
2021/06/01 08:26:16;;;;;;;1.60;1.50;;;23.10;84.00;;;;;;5050282;28;20538;-86
2021/06/01 08:28:42;;;;;;;1.50;1.40;;;22.90;82.40;;;;;;5034301;28;20199;-82
2021/06/01 08:31:10;;;;;;;1.58;1.48;;;22.80;86.20;;;;;;5035104;28;20635;-83
2021/06/01 08:33:36;;;;;;;4.65;1.60;;;23.10;83.90;;;;;;5035554;28;20245;-85
2021/06/01 08:36:02;;;;;;;3.92;1.40;;;23.20;83.60;;;;;;5040872;28;20178;-83
2021/06/01 08:38:27;;;;;;;2.70;1.70;;;23.10;82.30;;;;;;5053992;28;20245;-82
2021/06/01 08:40:53;;;;;;;6.32;1.48;;;23.00;83.60;;;;;;5055386;28;20171;-82
2021/06/01 08:43:21;;;;;;;1.30;1.20;;;22.80;82.90;;;;;;5055502;28;20589;-82
2021/06/01 08:45:52;;;;;;;1.45;1.35;;;22.90;82.60;;;;;;5051480;28;20187;-82
2021/06/01 08:48:19;;;;;;;3.15;1.77;;;23.20;82.00;;;;;;5053070;28;20194;-83
2021/06/01 08:50:54;;;;;;;2.97;1.80;;;23.10;82.00;;;;;;5034980;28;20191;-83
2021/06/01 08:53:19;;;;;;;1.48;1.33;;;23.10;82.10;;;;;;5035741;28;20261;-83
2021/06/01 08:55:47;;;;;;;2.50;1.60;;;23.00;81.30;;;;;;5035953;28;20214;-84
2021/06/01 08:58:15;;;;;;;1.40;1.30;;;23.20;83.30;;;;;;5036082;28;20164;-82
2021/06/01 09:00:41;;;;;;;1.52;1.27;;;23.30;81.60;;;;;;5053670;28;20199;-88
2021/06/01 09:03:13;;;;;;;6.50;1.85;;;23.20;80.10;;;;;;5054320;28;20178;-84
2021/06/01 09:05:59;;;;;;;1.40;1.30;;;23.10;81.30;;;;;;5036244;28;20220;-85
2021/06/01 09:08:38;;;;;;;2.70;1.23;;;23.20;81.80;;;;;;5035587;28;20236;-86
2021/06/01 09:11:15;;;;;;;1.92;1.50;;;23.40;82.30;;;;;;5035752;28;20219;-81
2021/06/01 09:21:36;;;;;;;2.00;1.38;;;24.00;79.60;;;;;;5053262;28;20268;-81
2021/06/01 09:24:03;;;;;;;2.13;1.40;;;24.00;79.50;;;;;;5033866;28;20170;-81
2021/06/01 09:29:23;;;;;;;1.20;1.10;;;23.70;77.50;;;;;;5051915;28;20733;-81
2021/06/01 09:32:12;;;;;;;2.80;1.60;;;23.50;78.90;;;;;;5051626;28;20258;-80
2021/06/01 09:34:46;;;;;;;1.27;1.17;;;23.40;79.50;;;;;;5034827;28;20167;-83
2021/06/01 09:37:20;;;;;;;7.45;1.23;;;23.20;77.80;;;;;;5052421;28;20214;-83
2021/06/01 09:40:01;;;;;;;5.95;1.60;;;23.30;78.60;;;;;;5035470;28;20558;-84
2021/06/01 09:42:28;;;;;;;1.70;1.60;;;23.30;78.50;;;;;;5053111;28;20215;-84
2021/06/01 09:45:09;;;;;;;5.22;1.20;;;23.40;78.80;;;;;;5034828;28;20639;-84
2021/06/01 09:47:45;;;;;;;2.00;1.40;;;23.60;77.60;;;;;;5035204;28;20239;-84
2021/06/01 09:50:33;;;;;;;1.40;1.30;;;23.90;77.90;;;;;;5034790;28;20257;-83
2021/06/01 09:53:04;;;;;;;1.30;1.20;;;24.20;76.70;;;;;;5034695;28;20170;-82
2021/06/01 09:55:37;;;;;;;6.97;2.22;;;24.30;75.80;;;;;;5052450;28;20179;-83
2021/06/01 09:58:13;;;;;;;4.72;1.20;;;24.20;76.20;;;;;;5034707;28;20175;-82
2021/06/01 10:00:41;;;;;;;1.67;1.30;;;24.10;75.30;;;;;;5034429;28;20198;-83
2021/06/01 10:03:18;;;;;;;1.60;1.50;;;24.10;76.80;;;;;;5052845;28;20183;-83
2021/06/01 10:05:45;;;;;;;5.60;2.15;;;24.20;75.60;;;;;;5035126;28;20175;-83
2021/06/01 10:08:21;;;;;;;5.53;1.80;;;24.30;75.90;;;;;;5035193;28;20178;-84
2021/06/01 10:10:53;;;;;;;6.90;1.90;;;24.30;75.20;;;;;;5034866;28;20191;-84
2021/06/01 10:13:21;;;;;;;6.95;1.85;;;24.20;75.90;;;;;;5035387;28;20206;-83
2021/06/01 10:15:52;;;;;;;1.80;1.48;;;24.10;76.00;;;;;;5052820;28;20163;-84
2021/06/01 10:18:22;;;;;;;3.13;0.82;;;24.10;76.00;;;;;;5053144;28;20175;-84
2021/06/01 10:20:49;;;;;;;5.68;1.63;;;24.10;76.10;;;;;;5034365;28;20215;-84
2021/06/01 10:23:21;;;;;;;12.38;2.45;;;24.20;76.60;;;;;;5034347;28;20653;-84
2021/06/01 10:25:47;;;;;;;3.45;1.60;;;24.40;77.20;;;;;;5034919;28;20170;-84
2021/06/01 10:28:23;;;;;;;2.28;1.42;;;24.40;78.30;;;;;;5035085;28;20171;-85
2021/06/01 10:30:49;;;;;;;1.88;1.42;;;24.40;78.90;;;;;;5053066;28;21174;-85
2021/06/01 10:33:16;;;;;;;1.88;1.65;;;24.50;78.60;;;;;;5035170;28;20165;-82
2021/06/01 10:35:55;;;;;;;6.85;1.85;;;24.50;79.20;;;;;;5055929;28;20246;-82
2021/06/01 10:50:22;;;;;;;2.72;1.63;;;24.70;78.40;;;;;;5056985;28;20201;-86
2021/06/01 10:53:06;;;;;;;1.40;1.30;;;24.90;78.80;;;;;;5056062;28;20206;-85
2021/06/01 10:56:00;;;;;;;3.75;1.60;;;24.80;78.30;;;;;;5039180;28;20706;-84
2021/06/01 10:58:32;;;;;;;1.48;1.38;;;24.60;77.20;;;;;;5059068;28;20170;-85
2021/06/01 11:04:27;;;;;;;9.93;1.90;;;24.50;77.80;;;;;;5075968;28;20266;-84
2021/06/01 11:06:55;;;;;;;2.47;1.40;;;24.60;78.70;;;;;;5076745;28;20207;-83
2021/06/01 11:09:33;;;;;;;1.98;1.50;;;24.60;77.90;;;;;;5057943;28;20621;-84
2021/06/01 11:11:59;;;;;;;3.05;2.22;;;24.80;77.50;;;;;;5057769;28;20173;-82
2021/06/01 11:14:30;;;;;;;2.75;1.58;;;24.80;77.60;;;;;;5057866;28;20178;-82
2021/06/01 11:16:59;;;;;;;3.63;1.58;;;24.60;76.90;;;;;;5058036;28;20166;-81
2021/06/01 11:19:44;;;;;;;4.30;1.88;;;24.60;77.40;;;;;;5055882;28;20190;-80
2021/06/01 11:22:25;;;;;;;11.00;1.95;;;24.60;78.60;;;;;;5080136;28;20296;-84
2021/06/01 11:33:21;;;;;;;4.97;2.20;;;25.10;77.60;;;;;;5077345;28;20240;-81
2021/06/01 11:35:55;;;;;;;2.28;1.30;;;25.00;77.50;;;;;;5076759;28;20178;-82
2021/06/01 11:38:30;;;;;;;7.25;2.25;;;24.80;76.30;;;;;;5074720;28;20212;-81
2021/06/01 11:43:27;;;;;;;1.85;1.30;;;24.70;77.00;;;;;;5074157;28;20175;-81
2021/06/01 11:51:46;;;;;;;6.90;1.50;;;24.70;75.90;;;;;;5073491;28;20197;-80
2021/06/01 11:54:15;;;;;;;4.88;1.77;;;24.70;76.00;;;;;;5056327;28;20182;-81
2021/06/01 12:02:21;;;;;;;1.42;1.30;;;25.00;74.80;;;;;;5088905;28;20297;-81
2021/06/01 12:18:41;;;;;;;2.55;1.40;;;25.00;75.00;;;;;;5075210;28;20181;-81
2021/06/01 12:21:10;;;;;;;6.30;1.60;;;25.00;74.70;;;;;;5074311;28;20166;-79
2021/06/01 12:23:38;;;;;;;6.32;1.52;;;25.00;74.80;;;;;;5074359;28;20546;-81
2021/06/01 12:32:32;;;;;;;1.38;1.27;;;24.90;73.90;;;;;;5013582;28;20223;-81
2021/06/01 12:46:20;;;;;;;8.25;1.58;;;25.20;74.30;;;;;;5050661;28;20202;-82
2021/06/01 13:20:49;;;;;;;5.95;2.25;;;25.50;72.80;;;;;;5073239;28;20293;-79
2021/06/01 13:47:53;;;;;;;2.20;1.50;;;25.80;72.20;;;;;;5072076;28;20239;-78
2021/06/01 13:50:27;;;;;;;7.78;1.77;;;25.80;72.60;;;;;;5072494;28;20617;-79
2021/06/01 13:55:52;;;;;;;3.90;1.40;;;26.00;73.00;;;;;;5056417;28;20250;-78
2021/06/01 14:40:00;;;;;;;1.40;1.30;;;26.00;73.80;;;;;;5090586;28;20205;-79
2021/06/01 16:22:57;;;;;;;2.38;1.23;;;26.10;74.00;;;;;;5095411;28;20220;-81
2021/06/01 17:04:06;;;;;;;10.82;5.97;;;26.20;74.20;;;;;;5093827;28;20300;-81
2021/06/01 17:06:51;;;;;;;3.50;3.10;;;25.90;75.10;;;;;;5074899;28;20206;-79
2021/06/01 17:11:59;;;;;;;18.60;8.85;;;26.00;74.80;;;;;;5093641;28;20169;-81
2021/06/01 17:14:27;;;;;;;18.35;9.95;;;25.80;75.60;;;;;;5093308;28;20162;-81
2021/06/01 17:16:57;;;;;;;13.05;7.20;;;25.80;75.60;;;;;;5093262;28;20503;-81
2021/06/01 17:35:40;;;;;;;21.35;8.15;;;25.60;77.90;;;;;;5054630;28;20193;-82
2021/06/01 17:38:06;;;;;;;75.75;24.55;;;25.40;77.90;;;;;;5093048;28;20174;-81
2021/06/01 17:40:33;;;;;;;85.35;28.60;;;25.50;78.30;;;;;;5093198;28;20661;-82
2021/06/01 17:43:04;;;;;;;103.55;32.53;;;25.40;78.50;;;;;;5092684;28;20201;-81
2021/06/01 17:45:35;;;;;;;62.20;22.25;;;25.50;78.20;;;;;;5091925;28;20173;-80
2021/06/01 17:48:05;;;;;;;42.10;15.27;;;25.50;77.80;;;;;;5092547;28;20269;-81
2021/06/01 17:50:31;;;;;;;37.35;13.23;;;25.40;78.50;;;;;;5074132;28;20246;-81
2021/06/01 17:52:59;;;;;;;25.70;8.68;;;25.30;79.00;;;;;;5092365;28;20162;-81
2021/06/01 17:55:27;;;;;;;19.20;6.85;;;25.20;78.70;;;;;;5074346;28;20173;-81
2021/06/01 17:57:53;;;;;;;2.85;2.20;;;25.10;79.00;;;;;;5092934;28;20178;-78
2021/06/01 18:00:21;;;;;;;4.72;2.28;;;25.10;79.40;;;;;;5074333;28;20677;-78
2021/06/01 18:02:48;;;;;;;7.78;2.13;;;25.20;79.10;;;;;;5092966;28;20625;-79
2021/06/01 18:05:16;;;;;;;3.45;2.85;;;25.20;78.90;;;;;;5092558;28;20629;-81
2021/06/01 18:07:53;;;;;;;3.50;2.42;;;25.20;79.20;;;;;;5092719;28;20190;-79
2021/06/01 18:34:54;;;;;;;11.55;2.30;;;24.90;79.40;;;;;;5092749;28;20734;-81
2021/06/01 18:40:48;;;;;;;4.82;2.03;;;24.90;78.50;;;;;;5097147;28;20476;-80
2021/06/01 19:06:02;;;;;;;2.22;2.03;;;24.60;80.10;;;;;;5097573;28;20211;-82
2021/06/01 19:29:50;;;;;;;13.30;1.75;;;24.10;80.80;;;;;;5096063;28;20835;-78
2021/06/01 19:50:08;;;;;;;2.42;2.00;;;23.50;83.20;;;;;;5094905;28;20228;-79
2021/06/01 19:52:34;;;;;;;4.45;2.15;;;23.60;83.60;;;;;;5095197;28;20255;-78
2021/06/01 19:55:03;;;;;;;3.40;1.98;;;23.50;83.60;;;;;;5094937;28;20653;-78
2021/06/01 19:57:29;;;;;;;4.50;2.25;;;23.50;83.70;;;;;;5094679;28;20178;-77
2021/06/01 19:59:57;;;;;;;2.10;1.90;;;23.40;84.30;;;;;;5094678;28;20189;-77
2021/06/01 20:02:24;;;;;;;2.17;1.98;;;23.30;84.50;;;;;;5094843;28;20205;-79
2021/06/01 20:04:52;;;;;;;5.80;1.95;;;23.10;85.00;;;;;;5094670;28;20158;-77
2021/06/01 20:07:20;;;;;;;2.70;2.03;;;23.10;85.50;;;;;;5093524;28;20204;-80
2021/06/01 20:09:46;;;;;;;3.97;1.95;;;23.10;85.70;;;;;;5081317;28;20182;-80
2021/06/01 20:12:12;;;;;;;3.50;1.98;;;23.00;85.90;;;;;;5086546;28;20634;-79